Welcome to Des Moines Iowa Weather. I am an independent private personal weather station on the Northwest Side of Des Moines, Iowa. Just East of Windsor Heights and just West of Glendale . This site is also mobile friendly.

There are no active watches, warnings or advisories


Visit our other weather sites:

Historical Data

Weather Station Setup



Weather Underground History page Text

Daily Summary for January 23, 2018 Units:  Both    English   Metric
« Previous Day
Next Day »
Daily Weekly Monthly Yearly Custom
  High: Low: Average:
Temperature: 29.0 °F /  -1.7 °C 25.0 °F /  -3.9 °C 26.8 °F /  -2.9 °C
Dew Point: 27.0 °F /  -2.8 °C 21.0 °F /  -6.1 °C 23.2 °F /  -4.9 °C
Humidity: 94 % 79 % 86 %
Wind Speed: 12.0 mph /  19.3 km/h - 3.4 mph /  5.5 km/h
Wind Gust: 20.0 mph /  32.2 km/h - -
Wind:- - North
Pressure: 30.26 in /  1024.6 hPa 29.74 in /  1007 hPa -
Precipitation: 0.00 in /  0 mm    
Historical Graphs
 
 
Tabular Data for January 23, 2018
Time Temperature Dew Point Pressure Wind Wind Speed Wind Gust Humidity Rainfall Rate (Hourly)
00:24 28.9 °F /  -1.7 °C 27.0 °F /  -2.8 °C 29.74 in /  1007 hPa North 10.0 mph /  16.1 km/h 17.0 mph /  27.4 km/h 94 % 0.00 in /  0 mm
00:39 28.7 °F /  -1.8 °C 27.0 °F /  -2.8 °C 29.75 in /  1007.3 hPa North 9.0 mph /  14.5 km/h 19.0 mph /  30.6 km/h 94 % 0.00 in /  0 mm
00:54 28.5 °F /  -1.9 °C 27.0 °F /  -2.8 °C 29.77 in /  1008 hPa North 3.0 mph /  4.8 km/h 16.0 mph /  25.7 km/h 94 % 0.00 in /  0 mm
01:09 28.4 °F /  -2 °C 27.0 °F /  -2.8 °C 29.78 in /  1008.4 hPa North 3.0 mph /  4.8 km/h 15.0 mph /  24.1 km/h 94 % 0.00 in /  0 mm
01:24 28.4 °F /  -2 °C 27.0 °F /  -2.8 °C 29.79 in /  1008.7 hPa North 6.0 mph /  9.7 km/h 15.0 mph /  24.1 km/h 94 % 0.00 in /  0 mm
01:39 28.4 °F /  -2 °C 27.0 °F /  -2.8 °C 29.80 in /  1009 hPa North 5.0 mph /  8 km/h 20.0 mph /  32.2 km/h 94 % 0.00 in /  0 mm
02:10 28.5 °F /  -1.9 °C 27.0 °F /  -2.8 °C 29.82 in /  1009.7 hPa North 2.0 mph /  3.2 km/h 17.0 mph /  27.4 km/h 93 % 0.00 in /  0 mm
02:25 28.7 °F /  -1.8 °C 27.0 °F /  -2.8 °C 29.84 in /  1010.4 hPa North 2.0 mph /  3.2 km/h 15.0 mph /  24.1 km/h 92 % 0.00 in /  0 mm
02:40 28.9 °F /  -1.7 °C 27.0 °F /  -2.8 °C 29.85 in /  1010.7 hPa North 10.0 mph /  16.1 km/h 14.0 mph /  22.5 km/h 92 % 0.00 in /  0 mm
02:55 29.0 °F /  -1.7 °C 27.0 °F /  -2.8 °C 29.86 in /  1011.1 hPa North 10.0 mph /  16.1 km/h 18.0 mph /  29 km/h 91 % 0.00 in /  0 mm
03:10 29.0 °F /  -1.7 °C 27.0 °F /  -2.8 °C 29.87 in /  1011.4 hPa North 4.0 mph /  6.4 km/h 19.0 mph /  30.6 km/h 90 % 0.00 in /  0 mm
03:25 28.8 °F /  -1.8 °C 26.0 °F /  -3.3 °C 29.88 in /  1011.7 hPa North 5.0 mph /  8 km/h 12.0 mph /  19.3 km/h 90 % 0.00 in /  0 mm
03:40 28.7 °F /  -1.8 °C 26.0 °F /  -3.3 °C 29.87 in /  1011.4 hPa North 9.0 mph /  14.5 km/h 15.0 mph /  24.1 km/h 89 % 0.00 in /  0 mm
03:55 28.8 °F /  -1.8 °C 26.0 °F /  -3.3 °C 29.88 in /  1011.7 hPa North 3.0 mph /  4.8 km/h 16.0 mph /  25.7 km/h 88 % 0.00 in /  0 mm
04:10 28.9 °F /  -1.7 °C 26.0 °F /  -3.3 °C 29.89 in /  1012.1 hPa North 6.0 mph /  9.7 km/h 16.0 mph /  25.7 km/h 88 % 0.00 in /  0 mm
04:40 28.8 °F /  -1.8 °C 26.0 °F /  -3.3 °C 29.92 in /  1013.1 hPa North 8.0 mph /  12.9 km/h 12.0 mph /  19.3 km/h 88 % 0.00 in /  0 mm
04:55 28.7 °F /  -1.8 °C 25.0 °F /  -3.9 °C 29.92 in /  1013.1 hPa North 2.0 mph /  3.2 km/h 13.0 mph /  20.9 km/h 87 % 0.00 in /  0 mm
05:10 28.6 °F /  -1.9 °C 25.0 °F /  -3.9 °C 29.93 in /  1013.4 hPa North 3.0 mph /  4.8 km/h 12.0 mph /  19.3 km/h 87 % 0.00 in /  0 mm
05:25 28.5 °F /  -1.9 °C 25.0 °F /  -3.9 °C 29.95 in /  1014.1 hPa North 3.0 mph /  4.8 km/h 9.0 mph /  14.5 km/h 87 % 0.00 in /  0 mm
05:40 28.6 °F /  -1.9 °C 26.0 °F /  -3.3 °C 29.96 in /  1014.4 hPa North 2.0 mph /  3.2 km/h 11.0 mph /  17.7 km/h 88 % 0.00 in /  0 mm
05:55 28.5 °F /  -1.9 °C 25.0 °F /  -3.9 °C 29.98 in /  1015.1 hPa North 2.0 mph /  3.2 km/h 12.0 mph /  19.3 km/h 88 % 0.00 in /  0 mm
06:10 28.0 °F /  -2.2 °C 25.0 °F /  -3.9 °C 29.99 in /  1015.5 hPa North 4.0 mph /  6.4 km/h 16.0 mph /  25.7 km/h 87 % 0.00 in /  0 mm
06:25 27.8 °F /  -2.3 °C 25.0 °F /  -3.9 °C 29.99 in /  1015.5 hPa North 6.0 mph /  9.7 km/h 14.0 mph /  22.5 km/h 88 % 0.00 in /  0 mm
06:40 27.7 °F /  -2.4 °C 25.0 °F /  -3.9 °C 30.00 in /  1015.8 hPa North 4.0 mph /  6.4 km/h 12.0 mph /  19.3 km/h 88 % 0.00 in /  0 mm
06:55 27.7 °F /  -2.4 °C 25.0 °F /  -3.9 °C 30.01 in /  1016.1 hPa North 4.0 mph /  6.4 km/h 14.0 mph /  22.5 km/h 88 % 0.00 in /  0 mm
07:25 27.4 °F /  -2.6 °C 24.0 °F /  -4.4 °C 30.03 in /  1016.8 hPa North 3.0 mph /  4.8 km/h 14.0 mph /  22.5 km/h 87 % 0.00 in /  0 mm
07:41 27.0 °F /  -2.8 °C 23.0 °F /  -5 °C 30.03 in /  1016.8 hPa North 5.0 mph /  8 km/h 16.0 mph /  25.7 km/h 86 % 0.00 in /  0 mm
07:56 26.5 °F /  -3.1 °C 23.0 °F /  -5 °C 30.04 in /  1017.2 hPa North 12.0 mph /  19.3 km/h 13.0 mph /  20.9 km/h 86 % 0.00 in /  0 mm
08:11 25.9 °F /  -3.4 °C 22.0 °F /  -5.6 °C 30.05 in /  1017.5 hPa North 9.0 mph /  14.5 km/h 15.0 mph /  24.1 km/h 86 % 0.00 in /  0 mm
08:26 25.6 °F /  -3.6 °C 22.0 °F /  -5.6 °C 30.06 in /  1017.8 hPa North 1.0 mph /  1.6 km/h 15.0 mph /  24.1 km/h 86 % 0.00 in /  0 mm
08:41 25.7 °F /  -3.5 °C 22.0 °F /  -5.6 °C 30.06 in /  1017.8 hPa North 2.0 mph /  3.2 km/h 9.0 mph /  14.5 km/h 86 % 0.00 in /  0 mm
08:56 25.8 °F /  -3.4 °C 23.0 °F /  -5 °C 30.07 in /  1018.2 hPa North 5.0 mph /  8 km/h 14.0 mph /  22.5 km/h 87 % 0.00 in /  0 mm
09:11 25.8 °F /  -3.4 °C 23.0 °F /  -5 °C 30.08 in /  1018.5 hPa North 6.0 mph /  9.7 km/h 16.0 mph /  25.7 km/h 87 % 0.00 in /  0 mm
09:26 25.8 °F /  -3.4 °C 23.0 °F /  -5 °C 30.09 in /  1018.8 hPa North 6.0 mph /  9.7 km/h 10.0 mph /  16.1 km/h 87 % 0.00 in /  0 mm
09:41 25.8 °F /  -3.4 °C 23.0 °F /  -5 °C 30.11 in /  1019.5 hPa North 5.0 mph /  8 km/h 11.0 mph /  17.7 km/h 87 % 0.00 in /  0 mm
09:56 25.9 °F /  -3.4 °C 22.0 °F /  -5.6 °C 30.11 in /  1019.5 hPa North 4.0 mph /  6.4 km/h 13.0 mph /  20.9 km/h 86 % 0.00 in /  0 mm
10:26 26.2 °F /  -3.2 °C 22.0 °F /  -5.6 °C 30.13 in /  1020.2 hPa North 5.0 mph /  8 km/h 12.0 mph /  19.3 km/h 84 % 0.00 in /  0 mm
10:41 26.4 °F /  -3.1 °C 22.0 °F /  -5.6 °C 30.13 in /  1020.2 hPa North 3.0 mph /  4.8 km/h 11.0 mph /  17.7 km/h 84 % 0.00 in /  0 mm
10:56 26.4 °F /  -3.1 °C 22.0 °F /  -5.6 °C 30.14 in /  1020.5 hPa North 8.0 mph /  12.9 km/h 12.0 mph /  19.3 km/h 83 % 0.00 in /  0 mm
11:11 26.3 °F /  -3.2 °C 22.0 °F /  -5.6 °C 30.14 in /  1020.5 hPa North 2.0 mph /  3.2 km/h 16.0 mph /  25.7 km/h 82 % 0.00 in /  0 mm
11:41 27.2 °F /  -2.7 °C 22.0 °F /  -5.6 °C 30.13 in /  1020.2 hPa North 2.0 mph /  3.2 km/h 10.0 mph /  16.1 km/h 81 % 0.00 in /  0 mm
11:56 27.5 °F /  -2.5 °C 22.0 °F /  -5.6 °C 30.14 in /  1020.5 hPa North 4.0 mph /  6.4 km/h 6.0 mph /  9.7 km/h 80 % 0.00 in /  0 mm
12:11 27.4 °F /  -2.6 °C 22.0 °F /  -5.6 °C 30.14 in /  1020.5 hPa North 4.0 mph /  6.4 km/h 14.0 mph /  22.5 km/h 79 % 0.00 in /  0 mm
12:26 27.6 °F /  -2.4 °C 22.0 °F /  -5.6 °C 30.14 in /  1020.5 hPa North 2.0 mph /  3.2 km/h 10.0 mph /  16.1 km/h 80 % 0.00 in /  0 mm
12:41 27.5 °F /  -2.5 °C 22.0 °F /  -5.6 °C 30.14 in /  1020.5 hPa North 6.0 mph /  9.7 km/h 17.0 mph /  27.4 km/h 79 % 0.00 in /  0 mm
12:56 27.7 °F /  -2.4 °C 23.0 °F /  -5 °C 30.14 in /  1020.5 hPa North 6.0 mph /  9.7 km/h 10.0 mph /  16.1 km/h 81 % 0.00 in /  0 mm
13:11 27.9 °F /  -2.3 °C 23.0 °F /  -5 °C 30.14 in /  1020.5 hPa North 2.0 mph /  3.2 km/h 6.0 mph /  9.7 km/h 82 % 0.00 in /  0 mm
13:41 27.8 °F /  -2.3 °C 23.0 °F /  -5 °C 30.15 in /  1020.9 hPa North 2.0 mph /  3.2 km/h 8.0 mph /  12.9 km/h 82 % 0.00 in /  0 mm
13:56 27.4 °F /  -2.6 °C 23.0 °F /  -5 °C 30.16 in /  1021.2 hPa North 4.0 mph /  6.4 km/h 10.0 mph /  16.1 km/h 82 % 0.00 in /  0 mm
14:11 27.3 °F /  -2.6 °C 23.0 °F /  -5 °C 30.16 in /  1021.2 hPa North 1.0 mph /  1.6 km/h 9.0 mph /  14.5 km/h 82 % 0.00 in /  0 mm
14:26 27.1 °F /  -2.7 °C 23.0 °F /  -5 °C 30.17 in /  1021.6 hPa North 2.0 mph /  3.2 km/h 16.0 mph /  25.7 km/h 83 % 0.00 in /  0 mm
14:42 26.7 °F /  -2.9 °C 22.0 °F /  -5.6 °C 30.17 in /  1021.6 hPa North 3.0 mph /  4.8 km/h 6.0 mph /  9.7 km/h 83 % 0.00 in /  0 mm
14:57 26.7 °F /  -2.9 °C 22.0 °F /  -5.6 °C 30.18 in /  1021.9 hPa North 2.0 mph /  3.2 km/h 9.0 mph /  14.5 km/h 83 % 0.00 in /  0 mm
15:12 26.9 °F /  -2.8 °C 23.0 °F /  -5 °C 30.18 in /  1021.9 hPa North 4.0 mph /  6.4 km/h 8.0 mph /  12.9 km/h 84 % 0.00 in /  0 mm
15:27 26.6 °F /  -3 °C 22.0 °F /  -5.6 °C 30.19 in /  1022.2 hPa North 6.0 mph /  9.7 km/h 9.0 mph /  14.5 km/h 83 % 0.00 in /  0 mm
15:42 26.2 °F /  -3.2 °C 22.0 °F /  -5.6 °C 30.19 in /  1022.2 hPa North 3.0 mph /  4.8 km/h 12.0 mph /  19.3 km/h 83 % 0.00 in /  0 mm
15:57 26.2 °F /  -3.2 °C 22.0 °F /  -5.6 °C 30.18 in /  1021.9 hPa North 2.0 mph /  3.2 km/h 12.0 mph /  19.3 km/h 84 % 0.00 in /  0 mm
16:12 26.4 °F /  -3.1 °C 22.0 °F /  -5.6 °C 30.19 in /  1022.2 hPa North 2.0 mph /  3.2 km/h 6.0 mph /  9.7 km/h 84 % 0.00 in /  0 mm
16:27 26.4 °F /  -3.1 °C 22.0 °F /  -5.6 °C 30.20 in /  1022.6 hPa North 3.0 mph /  4.8 km/h 6.0 mph /  9.7 km/h 84 % 0.00 in /  0 mm
16:42 26.0 °F /  -3.3 °C 22.0 °F /  -5.6 °C 30.20 in /  1022.6 hPa North 3.0 mph /  4.8 km/h 9.0 mph /  14.5 km/h 83 % 0.00 in /  0 mm
16:57 25.9 °F /  -3.4 °C 21.0 °F /  -6.1 °C 30.21 in /  1022.9 hPa North 1.0 mph /  1.6 km/h 9.0 mph /  14.5 km/h 83 % 0.00 in /  0 mm
17:12 25.6 °F /  -3.6 °C 21.0 °F /  -6.1 °C 30.21 in /  1022.9 hPa North 3.0 mph /  4.8 km/h 8.0 mph /  12.9 km/h 83 % 0.00 in /  0 mm
17:27 25.6 °F /  -3.6 °C 21.0 °F /  -6.1 °C 30.21 in /  1022.9 hPa Calm   6.0 mph /  9.7 km/h 84 % 0.00 in /  0 mm
17:42 25.6 °F /  -3.6 °C 22.0 °F /  -5.6 °C 30.23 in /  1023.6 hPa North 3.0 mph /  4.8 km/h 4.0 mph /  6.4 km/h 85 % 0.00 in /  0 mm
17:57 25.6 °F /  -3.6 °C 22.0 °F /  -5.6 °C 30.23 in /  1023.6 hPa North 3.0 mph /  4.8 km/h 9.0 mph /  14.5 km/h 85 % 0.00 in /  0 mm
18:12 25.6 °F /  -3.6 °C 22.0 °F /  -5.6 °C 30.23 in /  1023.6 hPa North 3.0 mph /  4.8 km/h 4.0 mph /  6.4 km/h 85 % 0.00 in /  0 mm
18:27 25.4 °F /  -3.7 °C 22.0 °F /  -5.6 °C 30.23 in /  1023.6 hPa North 2.0 mph /  3.2 km/h 6.0 mph /  9.7 km/h 85 % 0.00 in /  0 mm
18:42 25.3 °F /  -3.7 °C 21.0 °F /  -6.1 °C 30.24 in /  1023.9 hPa North 4.0 mph /  6.4 km/h 5.0 mph /  8 km/h 84 % 0.00 in /  0 mm
18:57 25.2 °F /  -3.8 °C 21.0 °F /  -6.1 °C 30.24 in /  1023.9 hPa North 3.0 mph /  4.8 km/h 6.0 mph /  9.7 km/h 85 % 0.00 in /  0 mm
19:27 25.0 °F /  -3.9 °C 21.0 °F /  -6.1 °C 30.24 in /  1023.9 hPa Calm   9.0 mph /  14.5 km/h 85 % 0.00 in /  0 mm
19:42 25.0 °F /  -3.9 °C 21.0 °F /  -6.1 °C 30.25 in /  1024.3 hPa North 2.0 mph /  3.2 km/h 5.0 mph /  8 km/h 85 % 0.00 in /  0 mm
19:57 25.0 °F /  -3.9 °C 21.0 °F /  -6.1 °C 30.25 in /  1024.3 hPa North 3.0 mph /  4.8 km/h 5.0 mph /  8 km/h 86 % 0.00 in /  0 mm
20:12 25.0 °F /  -3.9 °C 21.0 °F /  -6.1 °C 30.25 in /  1024.3 hPa Calm   4.0 mph /  6.4 km/h 86 % 0.00 in /  0 mm
20:27 25.1 °F /  -3.8 °C 22.0 °F /  -5.6 °C 30.25 in /  1024.3 hPa Calm   4.0 mph /  6.4 km/h 86 % 0.00 in /  0 mm
20:42 25.1 °F /  -3.8 °C 22.0 °F /  -5.6 °C 30.25 in /  1024.3 hPa North 2.0 mph /  3.2 km/h 6.0 mph /  9.7 km/h 87 % 0.00 in /  0 mm
20:57 25.1 °F /  -3.8 °C 22.0 °F /  -5.6 °C 30.26 in /  1024.6 hPa Calm   3.0 mph /  4.8 km/h 87 % 0.00 in /  0 mm
21:12 25.1 °F /  -3.8 °C 22.0 °F /  -5.6 °C 30.25 in /  1024.3 hPa Calm   3.0 mph /  4.8 km/h 87 % 0.00 in /  0 mm
21:27 25.1 °F /  -3.8 °C 22.0 °F /  -5.6 °C 30.25 in /  1024.3 hPa Calm   3.0 mph /  4.8 km/h 87 % 0.00 in /  0 mm
21:42 25.1 °F /  -3.8 °C 22.0 °F /  -5.6 °C 30.25 in /  1024.3 hPa Calm   2.0 mph /  3.2 km/h 87 % 0.00 in /  0 mm
21:57 25.1 °F /  -3.8 °C 22.0 °F /  -5.6 °C 30.26 in /  1024.6 hPa Calm   2.0 mph /  3.2 km/h 87 % 0.00 in /  0 mm
22:12 25.2 °F /  -3.8 °C 22.0 °F /  -5.6 °C 30.26 in /  1024.6 hPa North 1.0 mph /  1.6 km/h 3.0 mph /  4.8 km/h 87 % 0.00 in /  0 mm
22:28 25.2 °F /  -3.8 °C 22.0 °F /  -5.6 °C 30.26 in /  1024.6 hPa Calm   2.0 mph /  3.2 km/h 87 % 0.00 in /  0 mm
22:42 25.2 °F /  -3.8 °C 22.0 °F /  -5.6 °C 30.26 in /  1024.6 hPa Calm   2.0 mph /  3.2 km/h 87 % 0.00 in /  0 mm
22:57 25.3 °F /  -3.7 °C 22.0 °F /  -5.6 °C 30.26 in /  1024.6 hPa Calm   3.0 mph /  4.8 km/h 87 % 0.00 in /  0 mm
23:12 25.4 °F /  -3.7 °C 22.0 °F /  -5.6 °C 30.26 in /  1024.6 hPa Calm   2.0 mph /  3.2 km/h 88 % 0.00 in /  0 mm
23:27 25.3 °F /  -3.7 °C 22.0 °F /  -5.6 °C 30.26 in /  1024.6 hPa Calm   4.0 mph /  6.4 km/h 88 % 0.00 in /  0 mm
23:42 25.4 °F /  -3.7 °C 22.0 °F /  -5.6 °C 30.26 in /  1024.6 hPa Calm   3.0 mph /  4.8 km/h 88 % 0.00 in /  0 mm
23:57 25.4 °F /  -3.7 °C 22.0 °F /  -5.6 °C 30.26 in /  1024.6 hPa North 1.0 mph /  1.6 km/h 3.0 mph /  4.8 km/h 88 % 0.00 in /  0 mm
Des Moines Weather and Climate
Compliments of Weather Underground - 2.75 mb

Script developed by  Jim McMurry - jmcmurry@mwt.net Adapted for the template by  Wim van der Kuil - Leuven-Template.eu

You find our weather info also at:

Weather Underground

Equipment we use:

Weather-station
Davis VP2 Plus

Weather-program
Davis Weatherlink.Com

Weather-server
iMac (Retina 4K, 21.5-inch, Late 2015)

Provider
Hostmonster.com

Davis VP2 Plus

Davis Weatherlink.Com

iMac (Retina 4K, 21.5-inch, Late 2015)

Hostmonster.com